createdAt,value
2022-10-29T00:00:39.572Z,101812.31
2022-10-29T00:05:54.574Z,101806.44
2022-10-29T00:11:09.976Z,101813.34
2022-10-29T00:16:25.569Z,101790.97
2022-10-29T00:21:40.608Z,101783.34
2022-10-29T00:26:55.559Z,101786.13
2022-10-29T00:32:10.985Z,101775.47
2022-10-29T00:37:26.892Z,101772.44
2022-10-29T00:42:42.650Z,101782.88
2022-10-29T00:47:57.870Z,101775.72
2022-10-29T00:53:13.597Z,101773.97
2022-10-29T00:58:28.601Z,101777.75
2022-10-29T01:03:43.374Z,101764.06
2022-10-29T01:08:58.608Z,101773.72
2022-10-29T01:14:13.616Z,101765.81
2022-10-29T01:19:28.639Z,101747.00
2022-10-29T01:24:43.576Z,101753.91
2022-10-29T01:29:58.615Z,101762.03
2022-10-29T01:35:13.955Z,101759.25
2022-10-29T01:40:29.620Z,101743.75
2022-10-29T01:45:44.574Z,101735.91
2022-10-29T01:50:59.829Z,101721.38
2022-10-29T01:56:15.605Z,101730.53
2022-10-29T02:01:30.685Z,101714.28
2022-10-29T02:06:45.574Z,101716.31
2022-10-29T02:12:00.692Z,101704.88
2022-10-29T02:17:15.915Z,101701.34
2022-10-29T02:22:31.598Z,101699.28
2022-10-29T02:27:46.886Z,101698.78
2022-10-29T02:33:02.928Z,101708.44
2022-10-29T02:38:18.894Z,101708.97
2022-10-29T02:43:34.584Z,101709.47
2022-10-29T02:48:49.895Z,101696.78
2022-10-29T02:54:05.629Z,101685.84
2022-10-29T02:59:20.646Z,101680.47
2022-10-29T03:04:35.342Z,101673.38
2022-10-29T03:09:50.613Z,101653.56
2022-10-29T03:15:05.596Z,101660.22
2022-10-29T03:20:20.620Z,101658.19
2022-10-29T03:25:35.632Z,101656.63
2022-10-29T03:30:50.684Z,101653.09
2022-10-29T03:36:05.626Z,101654.38
2022-10-29T03:41:20.987Z,101662.53
2022-10-29T03:46:36.910Z,101674.69
2022-10-29T03:51:52.662Z,101668.81
2022-10-29T03:57:07.896Z,101669.59
2022-10-29T04:02:24.041Z,101668.81
2022-10-29T04:07:39.633Z,101672.94
2022-10-29T04:12:55.175Z,101666.03
2022-10-29T04:18:10.613Z,101670.34
2022-10-29T04:29:00.584Z,101655.31
2022-10-29T04:34:15.781Z,101649.50
2022-10-29T04:39:30.601Z,101641.34
2022-10-29T04:44:45.907Z,101635.75
2022-10-29T04:50:01.624Z,101630.41
2022-10-29T04:55:16.613Z,101636.00
2022-10-29T05:00:31.590Z,101635.47
2022-10-29T05:05:46.591Z,101638.50
2022-10-29T05:11:01.618Z,101635.16
2022-10-29T05:16:16.662Z,101610.00
2022-10-29T05:21:31.605Z,101598.06
2022-10-29T05:26:46.651Z,101612.03
2022-10-29T05:32:01.618Z,101612.31
2022-10-29T05:37:16.751Z,101604.91
2022-10-29T05:42:31.601Z,101602.63
2022-10-29T05:47:46.911Z,101606.63
2022-10-29T05:53:02.606Z,101606.41
2022-10-29T05:58:17.660Z,101598.34
2022-10-29T06:03:32.610Z,101591.75
2022-10-29T06:08:47.678Z,101581.06
2022-10-29T06:14:02.654Z,101576.56
2022-10-29T06:19:17.904Z,101583.16
2022-10-29T06:24:33.618Z,101577.34
2022-10-29T06:29:48.597Z,101579.16
2022-10-29T06:35:03.902Z,101592.13
2022-10-29T06:40:19.609Z,101586.28
2022-10-29T06:45:34.383Z,101581.25
2022-10-29T06:50:49.998Z,101588.59
2022-10-29T06:56:05.659Z,101599.06
2022-10-29T07:01:20.712Z,101583.31
2022-10-29T07:06:35.666Z,101575.47
2022-10-29T07:11:50.972Z,101551.34
2022-10-29T07:17:06.610Z,101561.78
2022-10-29T07:22:21.627Z,101572.72
2022-10-29T07:27:36.663Z,101593.56
2022-10-29T07:32:51.756Z,101584.91
2022-10-29T07:38:09.242Z,101579.88
2022-10-29T07:43:25.966Z,101568.69
2022-10-29T07:48:41.634Z,101575.56
2022-10-29T07:53:56.666Z,101583.19
2022-10-29T07:59:11.715Z,101582.41
2022-10-29T08:04:26.592Z,101573.28
2022-10-29T08:09:41.635Z,101589.31
2022-10-29T08:14:56.656Z,101578.63
2022-10-29T08:20:11.615Z,101573.81
2022-10-29T08:25:26.618Z,101563.13
2022-10-29T08:30:41.617Z,101559.06
2022-10-29T08:35:56.611Z,101548.13
2022-10-29T08:41:11.956Z,101531.38
2022-10-29T08:46:27.388Z,101524.75
2022-10-29T08:51:42.673Z,101536.13
2022-10-29T08:56:57.610Z,101531.56
2022-10-29T09:02:12.654Z,101538.66
2022-10-29T09:07:27.675Z,101553.88
2022-10-29T09:12:42.609Z,101544.19
2022-10-29T09:17:58.294Z,101549.78
2022-10-29T09:23:13.608Z,101566.53
2022-10-29T09:28:28.946Z,101544.19
2022-10-29T09:33:44.628Z,101538.59
2022-10-29T09:38:59.629Z,101541.41
2022-10-29T09:44:14.654Z,101526.69
2022-10-29T09:49:29.630Z,101520.34
2022-10-29T09:54:44.609Z,101517.56
2022-10-29T09:59:59.912Z,101511.19
2022-10-29T10:05:20.631Z,101511.19
2022-10-29T10:10:35.691Z,101476.13
2022-10-29T10:15:50.650Z,101485.78
2022-10-29T10:21:05.692Z,101491.38
2022-10-29T10:26:21.097Z,101494.72
2022-10-29T10:31:37.106Z,101486.31
2022-10-29T10:36:53.141Z,101497.50
2022-10-29T10:42:08.675Z,101479.47
2022-10-29T10:47:23.916Z,101471.28
2022-10-29T10:52:39.675Z,101464.47
2022-10-29T10:57:54.625Z,101460.59
2022-10-29T11:03:09.673Z,101455.00
2022-10-29T11:08:24.935Z,101451.44
2022-10-29T11:13:40.705Z,101439.00
2022-10-29T11:18:55.615Z,101452.22
2022-10-29T11:24:10.728Z,101458.28
2022-10-29T11:29:25.942Z,101447.31
2022-10-29T11:34:41.921Z,101439.69
2022-10-29T11:39:57.931Z,101442.69
2022-10-29T11:45:13.629Z,101439.41
2022-10-29T11:50:28.636Z,101426.41
2022-10-29T11:55:43.673Z,101429.44
2022-10-29T12:00:58.646Z,101421.25
2022-10-29T12:06:13.992Z,101418.69
2022-10-29T12:11:29.663Z,101402.69
2022-10-29T12:16:44.725Z,101413.88
2022-10-29T12:22:00.028Z,101402.16
2022-10-29T12:27:15.633Z,101398.09
2022-10-29T12:32:30.670Z,101386.34
2022-10-29T12:37:45.647Z,101373.13
2022-10-29T12:43:00.702Z,101369.09
2022-10-29T12:48:15.844Z,101370.56
2022-10-29T12:53:31.956Z,101373.06
2022-10-29T12:58:47.678Z,101376.09
2022-10-29T13:04:02.624Z,101366.44
2022-10-29T13:09:17.675Z,101353.94
2022-10-29T13:14:32.417Z,101349.13
2022-10-29T13:19:47.676Z,101352.66
2022-10-29T13:25:02.960Z,101346.56
2022-10-29T13:30:18.641Z,101343.75
2022-10-29T13:35:33.999Z,101331.25
2022-10-29T13:40:49.471Z,101325.66
2022-10-29T13:46:04.633Z,101314.47
2022-10-29T13:51:19.707Z,101313.19
2022-10-29T13:56:34.960Z,101311.94
2022-10-29T14:01:50.717Z,101303.56
2022-10-29T14:07:05.656Z,101305.81
2022-10-29T14:12:20.672Z,101307.31
2022-10-29T14:17:35.730Z,101290.53
2022-10-29T14:22:50.678Z,101281.38
2022-10-29T14:28:05.528Z,101292.38
2022-10-29T14:33:20.976Z,101288.28
2022-10-29T14:38:36.647Z,101290.34
2022-10-29T14:43:51.420Z,101284.47
2022-10-29T14:49:06.713Z,101305.34
2022-10-29T14:54:22.006Z,101296.75
2022-10-29T14:59:36.689Z,101303.84
2022-10-29T15:04:51.685Z,101302.34
2022-10-29T15:10:06.672Z,101289.13
2022-10-29T15:15:21.962Z,101288.88
2022-10-29T15:20:37.443Z,101285.38
2022-10-29T15:25:53.140Z,101278.25
2022-10-29T15:31:08.722Z,101286.63
2022-10-29T15:36:24.052Z,101275.47
2022-10-29T15:41:39.999Z,101271.13
2022-10-29T15:46:55.426Z,101268.31
2022-10-29T15:52:10.666Z,101266.81
2022-10-29T15:57:25.736Z,101249.31
2022-10-29T16:02:40.719Z,101243.47
2022-10-29T16:07:55.687Z,101240.16
2022-10-29T16:13:10.987Z,101236.06
2022-10-29T16:18:26.963Z,101230.47
2022-10-29T16:23:42.670Z,101220.03
2022-10-29T16:28:57.972Z,101219.28
2022-10-29T16:34:13.686Z,101221.34
2022-10-29T16:39:28.989Z,101214.25
2022-10-29T16:44:45.035Z,101210.16
2022-10-29T16:50:00.702Z,101202.50
2022-10-29T16:55:16.681Z,101196.38
2022-10-29T17:00:31.669Z,101197.94
2022-10-29T17:05:46.678Z,101199.41
2022-10-29T17:11:01.948Z,101186.75
2022-10-29T17:16:17.658Z,101197.94
2022-10-29T17:21:32.654Z,101196.63
2022-10-29T17:26:47.693Z,101204.28
2022-10-29T17:37:38.005Z,101214.72
2022-10-29T17:43:31.427Z,101205.56
2022-10-29T17:48:46.657Z,101197.19
2022-10-29T17:54:01.715Z,101182.41
2022-10-29T17:59:16.686Z,101193.59
2022-10-29T18:04:31.748Z,101199.41
2022-10-29T18:09:46.653Z,101209.97
2022-10-29T18:15:01.714Z,101220.06
2022-10-29T18:20:16.712Z,101234.28
2022-10-29T18:25:31.907Z,101253.56
2022-10-29T18:30:46.695Z,101259.63
2022-10-29T18:36:01.515Z,101251.22
2022-10-29T18:41:16.589Z,101231.84
2022-10-29T18:46:31.740Z,101232.06
2022-10-29T18:51:46.689Z,101245.00
2022-10-29T18:57:02.036Z,101231.53
2022-10-29T19:02:17.818Z,101239.41
2022-10-29T19:07:32.434Z,101228.22
2022-10-29T19:12:47.501Z,101223.13
2022-10-29T19:18:02.661Z,101221.31
2022-10-29T19:23:18.004Z,101211.84
2022-10-29T19:28:33.688Z,101223.78
2022-10-29T19:33:48.702Z,101213.34
2022-10-29T19:39:04.000Z,101222.50
2022-10-29T19:44:19.994Z,101228.84
2022-10-29T19:49:35.762Z,101236.72
2022-10-29T19:54:50.440Z,101243.06
2022-10-29T20:00:05.702Z,101244.56
2022-10-29T20:05:20.694Z,101243.28
2022-10-29T20:10:35.725Z,101243.50
2022-10-29T20:15:51.031Z,101257.47
2022-10-29T20:26:21.668Z,101250.81
2022-10-29T20:31:41.139Z,101255.13
2022-10-29T20:36:56.776Z,101259.22
2022-10-29T20:42:11.709Z,101259.44
2022-10-29T20:47:26.459Z,101262.97
2022-10-29T20:52:47.209Z,101268.03
2022-10-29T20:58:03.653Z,101264.75
2022-10-29T21:03:18.678Z,101273.13
2022-10-29T21:08:33.680Z,101262.66
2022-10-29T21:13:48.750Z,101271.81
2022-10-29T21:19:03.655Z,101270.34
2022-10-29T21:24:18.705Z,101274.38
2022-10-29T21:29:33.703Z,101276.44
2022-10-29T21:34:48.435Z,101280.50
2022-10-29T21:40:06.293Z,101278.28
2022-10-29T21:45:21.671Z,101280.31
2022-10-29T21:50:36.970Z,101290.00
2022-10-29T21:55:52.680Z,101284.41
2022-10-29T22:01:07.759Z,101282.88
2022-10-29T22:06:22.707Z,101288.47
2022-10-29T22:11:37.716Z,101291.28
2022-10-29T22:16:52.670Z,101286.97
2022-10-29T22:22:07.687Z,101298.16
2022-10-29T22:27:23.092Z,101297.41
2022-10-29T22:32:38.714Z,101301.75
2022-10-29T22:37:53.791Z,101298.16
2022-10-29T22:43:08.664Z,101293.84
2022-10-29T22:48:23.652Z,101295.88
2022-10-29T22:53:38.986Z,101303.53
2022-10-29T22:58:55.015Z,101298.47
2022-10-29T23:04:10.736Z,101295.13
2022-10-29T23:09:25.697Z,101308.59
2022-10-29T23:14:40.758Z,101301.75
2022-10-29T23:19:55.671Z,101313.66
2022-10-29T23:25:10.688Z,101317.97
2022-10-29T23:30:25.703Z,101320.78
2022-10-29T23:35:40.670Z,101320.25
2022-10-29T23:40:56.009Z,101318.94
2022-10-29T23:46:11.455Z,101320.44
2022-10-29T23:51:26.698Z,101317.66
2022-10-29T23:56:41.714Z,101319.69
